Time;durP1;ratioP1;P1;durP2;ratioP2;P2;SDS_P1;SDS_P2;PMS_P1;PMS_P2;Temp;Humidity;BMP_temperature;BMP_pressure;BME280_temperature;BME280_humidity;BME280_pressure;Samples;Min_cycle;Max_cycle;Signal;HPM_P1;HPM_P2
2023/09/22 00:01:29;;;;;;;15.43;5.68;;;;;;;;;;5052637;28;20025;-54
2023/09/22 00:03:55;;;;;;;16.20;6.00;;;;;;;;;;5070514;28;20138;-57
2023/09/22 00:06:22;;;;;;;15.02;5.68;;;;;;;;;;5070356;28;20033;-55
2023/09/22 00:08:48;;;;;;;15.25;6.38;;;;;;;;;;5070577;28;20049;-55
2023/09/22 00:11:14;;;;;;;12.75;4.40;;;;;;;;;;5069584;28;20040;-54
2023/09/22 00:13:40;;;;;;;16.85;4.65;;;;;;;;;;5070301;28;20025;-57
2023/09/22 00:16:06;;;;;;;15.77;4.70;;;;;;;;;;5070179;28;20103;-58
2023/09/22 00:18:32;;;;;;;15.43;5.00;;;;;;;;;;5070129;28;20051;-58
2023/09/22 00:20:58;;;;;;;15.88;5.40;;;;;;;;;;5070057;28;20102;-60
2023/09/22 00:23:24;;;;;;;14.88;4.75;;;;;;;;;;5052205;28;20021;-56
2023/09/22 00:25:50;;;;;;;15.70;5.50;;;;;;;;;;5052178;28;20548;-59
2023/09/22 00:28:16;;;;;;;15.18;4.88;;;;;;;;;;5070198;28;20039;-59
2023/09/22 00:30:42;;;;;;;15.38;4.95;;;;;;;;;;5069958;28;20167;-57
2023/09/22 00:33:08;;;;;;;15.70;4.07;;;;;;;;;;5070080;28;20032;-57
2023/09/22 00:35:34;;;;;;;14.15;4.40;;;;;;;;;;5051799;28;20071;-54
2023/09/22 00:38:01;;;;;;;13.85;4.80;;;;;;;;;;5070151;28;20066;-54
2023/09/22 00:40:26;;;;;;;14.80;4.90;;;;;;;;;;5069614;28;20098;-57
2023/09/22 00:43:11;;;;;;;17.50;4.57;;;;;;;;;;5071047;28;20100;-60
2023/09/22 00:45:46;;;;;;;15.18;4.75;;;;;;;;;;5071811;28;20390;-58
2023/09/22 00:48:20;;;;;;;14.57;4.88;;;;;;;;;;5071629;28;20039;-58
2023/09/22 00:50:47;;;;;;;14.43;4.93;;;;;;;;;;5071225;28;20103;-58
2023/09/22 00:53:13;;;;;;;14.02;4.35;;;;;;;;;;5071509;28;20063;-58
2023/09/22 00:55:39;;;;;;;17.15;5.20;;;;;;;;;;5053538;28;20067;-57
2023/09/22 00:58:06;;;;;;;15.70;5.63;;;;;;;;;;5071598;28;20039;-58
2023/09/22 01:00:33;;;;;;;18.15;5.72;;;;;;;;;;5071388;28;20024;-58
2023/09/22 01:02:59;;;;;;;15.77;5.07;;;;;;;;;;5071716;28;20099;-59
2023/09/22 01:05:25;;;;;;;15.15;4.40;;;;;;;;;;5070880;28;20029;-59
2023/09/22 01:07:51;;;;;;;14.73;4.78;;;;;;;;;;5053024;28;20020;-57
2023/09/22 01:10:17;;;;;;;16.17;4.22;;;;;;;;;;5070871;28;20501;-61
2023/09/22 01:12:43;;;;;;;13.57;4.60;;;;;;;;;;5071316;28;20387;-62
2023/09/22 01:15:10;;;;;;;15.90;5.85;;;;;;;;;;5070873;28;20025;-58
2023/09/22 01:17:36;;;;;;;15.35;5.30;;;;;;;;;;5070818;28;20016;-58
2023/09/22 01:20:03;;;;;;;15.93;5.82;;;;;;;;;;5070700;28;20047;-58
2023/09/22 01:22:29;;;;;;;16.83;5.73;;;;;;;;;;5072459;28;20021;-58
2023/09/22 01:24:56;;;;;;;15.20;5.70;;;;;;;;;;5075318;28;20444;-60
2023/09/22 01:27:22;;;;;;;16.80;6.00;;;;;;;;;;5075313;28;20079;-59
2023/09/22 01:29:48;;;;;;;18.83;5.80;;;;;;;;;;5075388;28;20068;-58
2023/09/22 01:32:15;;;;;;;17.08;6.60;;;;;;;;;;5075214;28;20029;-62
2023/09/22 01:34:41;;;;;;;17.05;7.00;;;;;;;;;;5075260;28;20069;-61
2023/09/22 01:37:07;;;;;;;17.25;7.45;;;;;;;;;;5075296;28;20111;-60
2023/09/22 01:39:36;;;;;;;18.02;7.32;;;;;;;;;;5074835;28;20035;-58
2023/09/22 01:42:02;;;;;;;16.85;6.90;;;;;;;;;;5075148;28;20096;-59
2023/09/22 01:44:28;;;;;;;17.23;6.75;;;;;;;;;;5075050;28;20438;-58
2023/09/22 01:46:54;;;;;;;17.00;6.00;;;;;;;;;;5075163;28;20066;-59
2023/09/22 01:49:20;;;;;;;16.80;6.32;;;;;;;;;;5074877;28;20017;-57
2023/09/22 01:51:46;;;;;;;16.70;6.80;;;;;;;;;;5073965;28;20029;-59
2023/09/22 01:54:12;;;;;;;17.67;7.72;;;;;;;;;;5073201;28;20032;-61
2023/09/22 01:56:38;;;;;;;17.05;6.82;;;;;;;;;;5065026;28;20036;-57
2023/09/22 01:59:04;;;;;;;16.48;6.80;;;;;;;;;;5072963;28;20419;-53
2023/09/22 02:01:30;;;;;;;16.90;6.65;;;;;;;;;;5072835;28;20024;-60
2023/09/22 02:03:56;;;;;;;18.23;7.50;;;;;;;;;;5073080;28;20091;-56
2023/09/22 02:06:22;;;;;;;17.45;6.93;;;;;;;;;;5072849;28;20028;-52
2023/09/22 02:08:48;;;;;;;18.02;6.82;;;;;;;;;;5054926;28;20070;-57
2023/09/22 02:11:14;;;;;;;17.52;7.43;;;;;;;;;;5072561;28;20032;-55
2023/09/22 02:13:40;;;;;;;18.67;7.68;;;;;;;;;;5072901;28;20099;-57
2023/09/22 02:16:06;;;;;;;17.42;7.28;;;;;;;;;;5072693;28;20036;-58
2023/09/22 02:18:32;;;;;;;18.23;7.47;;;;;;;;;;5072499;28;20033;-55
2023/09/22 02:20:58;;;;;;;18.02;8.10;;;;;;;;;;5072521;28;20024;-58
2023/09/22 02:23:25;;;;;;;18.15;8.25;;;;;;;;;;5072457;28;20025;-58
2023/09/22 02:25:51;;;;;;;17.92;8.02;;;;;;;;;;5072495;28;20122;-57
2023/09/22 02:28:18;;;;;;;19.35;7.95;;;;;;;;;;5072427;28;20029;-58
2023/09/22 02:30:44;;;;;;;17.77;7.60;;;;;;;;;;5072488;28;20085;-56
2023/09/22 02:33:10;;;;;;;18.52;8.68;;;;;;;;;;5072294;28;20028;-57
2023/09/22 02:35:40;;;;;;;18.85;7.78;;;;;;;;;;5054318;28;20033;-58
2023/09/22 02:38:07;;;;;;;17.63;7.72;;;;;;;;;;5054463;28;20530;-58
2023/09/22 02:40:33;;;;;;;16.83;7.00;;;;;;;;;;5071958;28;20078;-53
2023/09/22 02:42:59;;;;;;;17.25;7.05;;;;;;;;;;5072369;28;20017;-58
2023/09/22 02:45:25;;;;;;;17.08;7.05;;;;;;;;;;5072047;28;20106;-57
2023/09/22 02:47:51;;;;;;;18.00;7.60;;;;;;;;;;5072215;28;20051;-57
2023/09/22 02:50:18;;;;;;;17.90;7.50;;;;;;;;;;5071793;28;20388;-60
2023/09/22 02:52:44;;;;;;;17.25;7.70;;;;;;;;;;5072063;28;20021;-58
2023/09/22 02:55:11;;;;;;;18.13;7.00;;;;;;;;;;5071993;28;20087;-59
2023/09/22 02:57:37;;;;;;;17.25;7.57;;;;;;;;;;5072020;28;20016;-57
2023/09/22 03:00:11;;;;;;;19.27;7.35;;;;;;;;;;5071971;28;20020;-58
2023/09/22 03:02:38;;;;;;;17.25;7.13;;;;;;;;;;5071942;28;20028;-56
2023/09/22 03:05:08;;;;;;;18.52;8.00;;;;;;;;;;5071881;28;20031;-58
2023/09/22 03:07:34;;;;;;;20.83;8.25;;;;;;;;;;5071589;28;20428;-58
2023/09/22 03:10:00;;;;;;;18.85;8.13;;;;;;;;;;5071491;28;20427;-57
2023/09/22 03:12:26;;;;;;;18.23;8.05;;;;;;;;;;5071685;28;20060;-57
2023/09/22 03:14:52;;;;;;;17.83;7.63;;;;;;;;;;5071688;28;20063;-58
2023/09/22 03:17:18;;;;;;;18.98;7.70;;;;;;;;;;5067301;28;20431;-60
2023/09/22 03:19:44;;;;;;;22.38;7.72;;;;;;;;;;5071391;28;20155;-56
2023/09/22 03:22:10;;;;;;;19.60;8.85;;;;;;;;;;5071412;28;20028;-58
2023/09/22 03:24:36;;;;;;;21.25;7.68;;;;;;;;;;5071352;28;20491;-58
2023/09/22 03:27:02;;;;;;;18.60;8.23;;;;;;;;;;5053404;28;20020;-58
2023/09/22 03:29:28;;;;;;;18.15;6.88;;;;;;;;;;5071181;28;20074;-58
2023/09/22 03:31:54;;;;;;;20.35;8.55;;;;;;;;;;5071284;28;20020;-56
2023/09/22 03:34:21;;;;;;;22.13;8.50;;;;;;;;;;5071204;28;20021;-55
2023/09/22 03:36:49;;;;;;;20.67;9.48;;;;;;;;;;5070950;28;20026;-60
2023/09/22 03:39:15;;;;;;;20.73;9.25;;;;;;;;;;5071095;28;20100;-58
2023/09/22 03:41:42;;;;;;;24.52;10.18;;;;;;;;;;5053041;28;20486;-58
2023/09/22 03:44:08;;;;;;;21.17;10.10;;;;;;;;;;5070921;28;20024;-56
2023/09/22 03:46:34;;;;;;;23.90;10.30;;;;;;;;;;5070269;28;20113;-58
2023/09/22 03:49:00;;;;;;;21.30;9.73;;;;;;;;;;5071201;28;20482;-55
2023/09/22 03:51:28;;;;;;;21.23;9.73;;;;;;;;;;5070740;28;20453;-60
2023/09/22 03:53:54;;;;;;;21.50;10.30;;;;;;;;;;5070945;28;20012;-60
2023/09/22 03:56:20;;;;;;;21.70;9.75;;;;;;;;;;5070461;28;20028;-58
2023/09/22 03:58:46;;;;;;;21.70;8.65;;;;;;;;;;5070716;28;20019;-57
2023/09/22 04:01:12;;;;;;;20.45;8.68;;;;;;;;;;5070687;28;20135;-60
2023/09/22 04:03:38;;;;;;;19.92;8.68;;;;;;;;;;5070568;28;20044;-59
2023/09/22 04:06:05;;;;;;;19.92;9.25;;;;;;;;;;5070583;28;20028;-57
2023/09/22 04:08:31;;;;;;;23.70;9.57;;;;;;;;;;5070530;28;20111;-58
2023/09/22 04:10:57;;;;;;;19.55;8.40;;;;;;;;;;5070433;28;20073;-60
2023/09/22 04:13:27;;;;;;;22.83;10.02;;;;;;;;;;5070609;28;20150;-57
2023/09/22 04:16:04;;;;;;;22.27;8.63;;;;;;;;;;5070331;28;20013;-53
2023/09/22 04:18:30;;;;;;;30.95;9.25;;;;;;;;;;5070336;28;20410;-56
2023/09/22 04:20:57;;;;;;;21.30;9.45;;;;;;;;;;5070050;28;20520;-59
2023/09/22 04:23:25;;;;;;;20.08;7.97;;;;;;;;;;5070373;28;20020;-57
2023/09/22 04:25:54;;;;;;;19.50;9.02;;;;;;;;;;5070353;28;20029;-59
2023/09/22 04:28:23;;;;;;;22.23;8.00;;;;;;;;;;5070055;28;20020;-53
2023/09/22 04:30:49;;;;;;;21.98;7.65;;;;;;;;;;5069943;28;20021;-58
2023/09/22 04:33:15;;;;;;;19.83;8.07;;;;;;;;;;5069767;28;20028;-55
2023/09/22 04:35:41;;;;;;;21.40;8.38;;;;;;;;;;5069904;28;20032;-58
2023/09/22 04:38:09;;;;;;;23.45;9.00;;;;;;;;;;5070163;28;20030;-56
2023/09/22 04:40:36;;;;;;;20.48;8.38;;;;;;;;;;5069767;28;20458;-59
2023/09/22 04:43:03;;;;;;;21.05;9.60;;;;;;;;;;5070225;28;20021;-58
2023/09/22 04:45:29;;;;;;;19.40;9.15;;;;;;;;;;5069836;28;20059;-60
2023/09/22 04:47:55;;;;;;;24.25;9.27;;;;;;;;;;5069923;28;20100;-60
2023/09/22 04:50:22;;;;;;;21.02;8.88;;;;;;;;;;5069687;28;20029;-59
2023/09/22 04:52:49;;;;;;;21.73;9.85;;;;;;;;;;5069973;28;20047;-58
2023/09/22 04:55:19;;;;;;;22.73;10.18;;;;;;;;;;5069610;28;20028;-59
2023/09/22 04:57:45;;;;;;;19.45;8.38;;;;;;;;;;5070090;28;20655;-58
2023/09/22 05:00:24;;;;;;;20.05;9.13;;;;;;;;;;5069718;28;20067;-57
2023/09/22 05:02:50;;;;;;;21.67;8.05;;;;;;;;;;5061147;28;20024;-57
2023/09/22 05:05:18;;;;;;;19.80;8.40;;;;;;;;;;5059138;28;20029;-60
2023/09/22 05:07:45;;;;;;;23.10;9.68;;;;;;;;;;5069630;28;20028;-55
2023/09/22 05:10:11;;;;;;;26.85;9.68;;;;;;;;;;5051610;28;20028;-57
2023/09/22 05:12:37;;;;;;;22.90;8.95;;;;;;;;;;5095288;23;20036;-50
2023/09/22 05:15:04;;;;;;;24.33;9.60;;;;;;;;;;5091101;28;20077;-50
2023/09/22 05:17:30;;;;;;;20.48;9.50;;;;;;;;;;5091078;28;20016;-52
2023/09/22 05:19:58;;;;;;;18.73;7.90;;;;;;;;;;5090635;28;20071;-52
2023/09/22 05:22:24;;;;;;;22.73;8.45;;;;;;;;;;5087108;28;20047;-51
2023/09/22 05:24:50;;;;;;;22.02;8.38;;;;;;;;;;5071153;28;20405;-51
2023/09/22 05:27:16;;;;;;;23.88;9.20;;;;;;;;;;5070841;28;20021;-51
2023/09/22 05:29:43;;;;;;;22.98;8.30;;;;;;;;;;5071533;28;20028;-51
2023/09/22 05:32:09;;;;;;;25.45;8.23;;;;;;;;;;5052897;28;20032;-52
2023/09/22 05:34:35;;;;;;;19.95;8.07;;;;;;;;;;5052977;28;20154;-52
2023/09/22 05:37:01;;;;;;;22.23;8.30;;;;;;;;;;5053055;28;20032;-51
2023/09/22 05:39:27;;;;;;;20.73;8.82;;;;;;;;;;5070657;28;20054;-50
2023/09/22 05:41:53;;;;;;;19.27;8.52;;;;;;;;;;5070522;28;20099;-53
2023/09/22 05:44:19;;;;;;;19.33;9.02;;;;;;;;;;5053386;28;20502;-53
2023/09/22 05:46:45;;;;;;;20.15;7.78;;;;;;;;;;5053098;28;20024;-52
2023/09/22 05:49:14;;;;;;;20.42;7.90;;;;;;;;;;5070496;28;20111;-55
2023/09/22 05:51:42;;;;;;;19.85;8.02;;;;;;;;;;5068065;28;20027;-50
2023/09/22 05:54:09;;;;;;;20.15;8.48;;;;;;;;;;5062728;28;20613;-54
2023/09/22 05:56:35;;;;;;;19.30;7.53;;;;;;;;;;5069132;28;20478;-56
2023/09/22 05:59:01;;;;;;;19.77;7.85;;;;;;;;;;5070487;28;20082;-56
2023/09/22 06:01:37;;;;;;;17.80;8.07;;;;;;;;;;5052092;28;20024;-52
2023/09/22 06:04:05;;;;;;;18.33;7.40;;;;;;;;;;5070240;28;20020;-50
2023/09/22 06:06:32;;;;;;;21.48;8.48;;;;;;;;;;5070001;28;20033;-54
2023/09/22 06:08:59;;;;;;;21.88;8.70;;;;;;;;;;5072431;28;20021;-55
2023/09/22 06:11:26;;;;;;;19.95;9.38;;;;;;;;;;5074568;28;20504;-51
2023/09/22 06:13:52;;;;;;;19.17;8.98;;;;;;;;;;5073649;28;20062;-51
2023/09/22 06:16:18;;;;;;;19.67;8.98;;;;;;;;;;5074007;28;20025;-52
2023/09/22 06:18:44;;;;;;;16.77;8.25;;;;;;;;;;5073955;28;20032;-54
2023/09/22 06:21:11;;;;;;;22.10;8.32;;;;;;;;;;5073783;28;20016;-54
2023/09/22 06:23:38;;;;;;;18.33;8.23;;;;;;;;;;5073889;28;20480;-55
2023/09/22 06:26:05;;;;;;;16.48;8.23;;;;;;;;;;5073940;28;20025;-54
2023/09/22 06:28:32;;;;;;;18.92;9.32;;;;;;;;;;5073604;28;20492;-54
2023/09/22 06:31:01;;;;;;;16.65;7.38;;;;;;;;;;5073620;28;20017;-53
2023/09/22 06:33:27;;;;;;;18.05;7.40;;;;;;;;;;5055600;28;20024;-51
2023/09/22 06:35:57;;;;;;;20.65;7.28;;;;;;;;;;5056420;28;20127;-50
2023/09/22 06:38:23;;;;;;;20.70;8.55;;;;;;;;;;5073229;28;20025;-51
2023/09/22 06:40:54;;;;;;;17.60;8.40;;;;;;;;;;5055744;28;20020;-51
2023/09/22 06:43:23;;;;;;;18.67;9.75;;;;;;;;;;5073758;28;20346;-52
2023/09/22 06:45:51;;;;;;;18.55;8.75;;;;;;;;;;5073862;28;20470;-53
2023/09/22 06:48:17;;;;;;;16.55;8.25;;;;;;;;;;5073851;28;20083;-52
2023/09/22 06:50:43;;;;;;;18.80;8.90;;;;;;;;;;5073645;28;20099;-50
2023/09/22 06:53:11;;;;;;;15.38;7.80;;;;;;;;;;5073529;28;20536;-51
2023/09/22 06:55:37;;;;;;;19.88;8.90;;;;;;;;;;5073443;28;20016;-57
2023/09/22 06:58:07;;;;;;;14.52;7.35;;;;;;;;;;5073411;28;20020;-54
2023/09/22 07:00:33;;;;;;;16.88;7.78;;;;;;;;;;5073116;28;20109;-54
2023/09/22 07:02:59;;;;;;;16.50;7.50;;;;;;;;;;5072938;28;20091;-56
2023/09/22 07:05:25;;;;;;;17.35;7.53;;;;;;;;;;5073129;28;20025;-52
2023/09/22 07:07:52;;;;;;;16.27;7.97;;;;;;;;;;5073173;28;20024;-50
2023/09/22 07:10:18;;;;;;;15.50;8.32;;;;;;;;;;5072907;28;20112;-54
2023/09/22 07:12:44;;;;;;;15.60;7.57;;;;;;;;;;5072807;28;20036;-51
2023/09/22 07:15:12;;;;;;;16.45;7.70;;;;;;;;;;5072887;28;20020;-51
2023/09/22 07:17:38;;;;;;;16.77;7.20;;;;;;;;;;5072709;28;20046;-51
2023/09/22 07:20:08;;;;;;;19.40;7.25;;;;;;;;;;5073561;28;20390;-50
2023/09/22 07:22:35;;;;;;;15.30;6.97;;;;;;;;;;5073161;28;20016;-49
2023/09/22 07:25:01;;;;;;;17.60;7.18;;;;;;;;;;5072604;28;20020;-52
2023/09/22 07:27:27;;;;;;;15.55;7.47;;;;;;;;;;5072325;28;20512;-52
2023/09/22 07:29:53;;;;;;;16.40;7.55;;;;;;;;;;5072576;28;20017;-54
2023/09/22 07:32:19;;;;;;;14.13;6.93;;;;;;;;;;5054566;28;20025;-53
2023/09/22 07:34:45;;;;;;;15.57;6.90;;;;;;;;;;5072354;28;20134;-54
2023/09/22 07:37:11;;;;;;;14.73;7.55;;;;;;;;;;5054747;28;20536;-52
2023/09/22 07:39:41;;;;;;;15.23;7.47;;;;;;;;;;5054206;28;20070;-53
2023/09/22 07:42:09;;;;;;;16.17;8.10;;;;;;;;;;5072186;28;20082;-54
2023/09/22 07:44:35;;;;;;;16.73;8.10;;;;;;;;;;5054550;28;20078;-57
2023/09/22 07:47:03;;;;;;;16.30;7.53;;;;;;;;;;5072201;28;20625;-54
2023/09/22 07:49:29;;;;;;;16.05;7.90;;;;;;;;;;5053949;28;20067;-54
2023/09/22 07:51:55;;;;;;;17.15;8.05;;;;;;;;;;5048150;28;20431;-55
2023/09/22 07:54:21;;;;;;;14.68;7.68;;;;;;;;;;5068216;28;20539;-52
2023/09/22 07:56:47;;;;;;;15.23;7.30;;;;;;;;;;5068966;28;20024;-53
2023/09/22 07:59:16;;;;;;;18.77;8.25;;;;;;;;;;5067059;28;20485;-52
2023/09/22 08:01:43;;;;;;;16.83;8.18;;;;;;;;;;5071826;28;20020;-53
2023/09/22 08:04:09;;;;;;;15.65;8.65;;;;;;;;;;5071757;28;20051;-55
2023/09/22 08:06:35;;;;;;;17.13;8.35;;;;;;;;;;5053803;28;20028;-52
2023/09/22 08:09:03;;;;;;;15.40;8.07;;;;;;;;;;5071832;28;20032;-55
2023/09/22 08:11:29;;;;;;;15.38;8.27;;;;;;;;;;5071546;28;20032;-53
2023/09/22 08:13:58;;;;;;;14.48;7.97;;;;;;;;;;5053754;28;20218;-55
2023/09/22 08:16:26;;;;;;;14.85;7.97;;;;;;;;;;5053718;28;20078;-52
2023/09/22 08:18:53;;;;;;;17.45;8.40;;;;;;;;;;5051241;28;20074;-56
2023/09/22 08:21:20;;;;;;;15.93;8.38;;;;;;;;;;5065064;28;20017;-52
2023/09/22 08:23:46;;;;;;;15.13;8.00;;;;;;;;;;5049401;28;20115;-51
2023/09/22 08:26:17;;;;;;;14.90;8.88;;;;;;;;;;5071464;28;20048;-55
2023/09/22 08:28:44;;;;;;;15.95;8.23;;;;;;;;;;5063600;28;20444;-54
2023/09/22 08:31:10;;;;;;;15.57;8.13;;;;;;;;;;5070686;28;20579;-52
2023/09/22 08:33:37;;;;;;;16.83;8.90;;;;;;;;;;5071245;28;20012;-52
2023/09/22 08:36:03;;;;;;;15.88;8.90;;;;;;;;;;5071187;28;20017;-55
2023/09/22 08:38:31;;;;;;;15.27;9.85;;;;;;;;;;5070957;28;20024;-56
2023/09/22 08:40:58;;;;;;;23.88;9.75;;;;;;;;;;5071161;28;20013;-53
2023/09/22 08:43:24;;;;;;;16.08;9.70;;;;;;;;;;5053319;28;20044;-53
2023/09/22 08:45:51;;;;;;;15.77;8.85;;;;;;;;;;5051384;28;20398;-56
2023/09/22 08:48:17;;;;;;;16.15;9.02;;;;;;;;;;5051933;28;20143;-56
2023/09/22 08:50:44;;;;;;;16.67;9.52;;;;;;;;;;5071059;28;20029;-51
2023/09/22 08:53:11;;;;;;;16.70;9.90;;;;;;;;;;5070991;28;20024;-50
2023/09/22 08:55:38;;;;;;;16.05;9.70;;;;;;;;;;5071256;28;20020;-51
2023/09/22 08:58:04;;;;;;;16.35;9.40;;;;;;;;;;5071173;28;20257;-57
2023/09/22 09:00:30;;;;;;;15.27;9.32;;;;;;;;;;5053103;28;20056;-53
2023/09/22 09:02:58;;;;;;;15.73;9.20;;;;;;;;;;5071834;28;20391;-50
2023/09/22 09:05:28;;;;;;;16.05;9.30;;;;;;;;;;5054622;28;20059;-51
2023/09/22 09:07:55;;;;;;;16.45;9.50;;;;;;;;;;5072068;28;20017;-50
2023/09/22 09:10:29;;;;;;;17.58;10.45;;;;;;;;;;5052974;28;20504;-50
2023/09/22 09:12:55;;;;;;;16.23;11.23;;;;;;;;;;5070893;28;20032;-52
2023/09/22 09:15:25;;;;;;;17.85;10.30;;;;;;;;;;5071081;28;20082;-51
2023/09/22 09:18:03;;;;;;;15.70;11.05;;;;;;;;;;5071144;28;20025;-52
2023/09/22 09:20:31;;;;;;;17.52;10.60;;;;;;;;;;5070788;28;20394;-50
2023/09/22 09:22:57;;;;;;;15.30;10.30;;;;;;;;;;5071029;28;20017;-52
2023/09/22 09:25:23;;;;;;;15.98;10.50;;;;;;;;;;5053121;28;20028;-51
2023/09/22 09:27:59;;;;;;;15.80;10.70;;;;;;;;;;5070843;28;20024;-51
2023/09/22 09:30:26;;;;;;;15.82;10.80;;;;;;;;;;5070607;28;20052;-53
2023/09/22 09:32:51;;;;;;;16.45;10.82;;;;;;;;;;5070769;28;20036;-50
2023/09/22 09:35:31;;;;;;;14.98;10.32;;;;;;;;;;5070955;28;20077;-55
2023/09/22 09:38:03;;;;;;;16.38;11.07;;;;;;;;;;5053017;28;20382;-54
2023/09/22 09:40:29;;;;;;;15.73;10.50;;;;;;;;;;5070547;28;20541;-53
2023/09/22 09:42:57;;;;;;;20.75;11.30;;;;;;;;;;5067509;28;20016;-53
2023/09/22 09:45:24;;;;;;;15.37;10.40;;;;;;;;;;5071437;28;20035;-49
2023/09/22 09:47:53;;;;;;;15.73;11.30;;;;;;;;;;5051223;28;20029;-53
2023/09/22 09:50:21;;;;;;;14.90;10.07;;;;;;;;;;5081537;28;20113;-51
2023/09/22 09:52:55;;;;;;;16.38;9.85;;;;;;;;;;5074516;28;20169;-52
2023/09/22 09:55:24;;;;;;;17.35;10.27;;;;;;;;;;5076768;28;20337;-52
2023/09/22 09:57:56;;;;;;;16.23;10.38;;;;;;;;;;5073583;28;20094;-51
2023/09/22 10:00:22;;;;;;;15.30;10.10;;;;;;;;;;5073933;28;20021;-51
2023/09/22 10:02:49;;;;;;;17.33;10.38;;;;;;;;;;5074027;28;20009;-50
2023/09/22 10:05:17;;;;;;;15.68;10.27;;;;;;;;;;5073623;28;20032;-54
2023/09/22 10:07:46;;;;;;;15.02;10.40;;;;;;;;;;5055933;28;20016;-53
2023/09/22 10:10:13;;;;;;;15.07;10.20;;;;;;;;;;5070937;28;20506;-49
2023/09/22 10:12:40;;;;;;;15.35;10.50;;;;;;;;;;5071901;28;20123;-49
2023/09/22 10:15:07;;;;;;;17.25;11.05;;;;;;;;;;5072068;28;20486;-50
2023/09/22 10:17:33;;;;;;;15.80;11.48;;;;;;;;;;5071672;28;20031;-51
2023/09/22 10:20:13;;;;;;;15.50;11.68;;;;;;;;;;5071643;28;20021;-53
2023/09/22 10:22:39;;;;;;;16.30;10.93;;;;;;;;;;5072001;28;20028;-53
2023/09/22 10:25:14;;;;;;;15.18;10.82;;;;;;;;;;5071942;28;20444;-53
2023/09/22 10:27:54;;;;;;;15.57;10.35;;;;;;;;;;5073481;28;20029;-55
2023/09/22 10:30:21;;;;;;;19.40;11.63;;;;;;;;;;5073468;28;20028;-54
2023/09/22 10:32:47;;;;;;;18.17;11.32;;;;;;;;;;5073675;28;20032;-54
2023/09/22 10:35:14;;;;;;;15.48;11.63;;;;;;;;;;5073615;28;20029;-50
2023/09/22 10:37:56;;;;;;;16.10;11.25;;;;;;;;;;5073409;28;20016;-53
2023/09/22 10:40:22;;;;;;;15.65;10.82;;;;;;;;;;5055464;28;20111;-55
2023/09/22 10:42:50;;;;;;;15.88;11.30;;;;;;;;;;5073030;28;20074;-52
2023/09/22 10:45:19;;;;;;;15.40;11.05;;;;;;;;;;5073217;28;20029;-50
2023/09/22 10:47:46;;;;;;;15.90;11.20;;;;;;;;;;5073657;28;20021;-49
2023/09/22 10:50:21;;;;;;;15.90;11.35;;;;;;;;;;5072998;28;20039;-50
2023/09/22 10:52:54;;;;;;;18.27;11.15;;;;;;;;;;5073231;28;20117;-55
2023/09/22 10:55:23;;;;;;;15.68;10.93;;;;;;;;;;5073113;28;20028;-50
2023/09/22 10:57:49;;;;;;;15.65;10.60;;;;;;;;;;5073527;28;20390;-52
2023/09/22 11:00:16;;;;;;;19.80;11.10;;;;;;;;;;5072781;28;20021;-54
2023/09/22 11:02:44;;;;;;;15.57;10.70;;;;;;;;;;5073220;28;20017;-53
2023/09/22 11:05:13;;;;;;;15.68;11.25;;;;;;;;;;5072946;28;20033;-52
2023/09/22 11:07:39;;;;;;;16.85;11.00;;;;;;;;;;5073011;28;20047;-50
2023/09/22 11:10:05;;;;;;;17.85;11.40;;;;;;;;;;5073309;28;20478;-53
2023/09/22 11:12:32;;;;;;;16.60;10.93;;;;;;;;;;5055188;28;20101;-52
2023/09/22 11:14:58;;;;;;;15.10;11.05;;;;;;;;;;5072319;28;20052;-52
2023/09/22 11:17:46;;;;;;;17.05;11.52;;;;;;;;;;5072466;28;20475;-54
2023/09/22 11:20:28;;;;;;;15.63;11.30;;;;;;;;;;5072582;28;20027;-55
2023/09/22 11:22:55;;;;;;;16.77;11.35;;;;;;;;;;5054603;28;20028;-56
2023/09/22 11:25:22;;;;;;;16.67;10.45;;;;;;;;;;5072094;28;20020;-52
2023/09/22 11:27:48;;;;;;;14.63;10.82;;;;;;;;;;5067963;28;20028;-58
2023/09/22 11:30:16;;;;;;;17.00;11.50;;;;;;;;;;5072013;28;20355;-56
2023/09/22 11:32:43;;;;;;;16.67;11.02;;;;;;;;;;5053856;28;20024;-52
2023/09/22 11:35:09;;;;;;;16.77;10.82;;;;;;;;;;5071443;28;20148;-56
2023/09/22 11:37:35;;;;;;;17.30;10.70;;;;;;;;;;5053930;28;20020;-52
2023/09/22 11:40:12;;;;;;;15.63;11.00;;;;;;;;;;5070989;28;20083;-53
2023/09/22 11:42:38;;;;;;;17.58;10.90;;;;;;;;;;5071344;28;20505;-53
2023/09/22 11:45:05;;;;;;;15.18;10.52;;;;;;;;;;5053374;28;20048;-57
2023/09/22 11:47:31;;;;;;;18.52;10.80;;;;;;;;;;5071767;28;20028;-48
2023/09/22 11:49:57;;;;;;;14.90;9.60;;;;;;;;;;5071702;28;20103;-54
2023/09/22 11:52:32;;;;;;;15.45;10.30;;;;;;;;;;5053366;28;20028;-54
2023/09/22 11:54:59;;;;;;;16.30;10.07;;;;;;;;;;5071008;28;20032;-57
2023/09/22 11:57:25;;;;;;;15.20;10.80;;;;;;;;;;5070519;28;20478;-56
2023/09/22 11:59:59;;;;;;;16.48;11.82;;;;;;;;;;5066785;28;20035;-56
2023/09/22 12:02:26;;;;;;;15.73;12.07;;;;;;;;;;5071765;28;20020;-57
2023/09/22 12:04:52;;;;;;;17.00;12.05;;;;;;;;;;5071530;28;20020;-55
2023/09/22 12:07:19;;;;;;;16.08;11.85;;;;;;;;;;5052813;28;20367;-53
2023/09/22 12:09:45;;;;;;;15.93;12.02;;;;;;;;;;5071087;28;20485;-58
2023/09/22 12:12:12;;;;;;;16.33;11.75;;;;;;;;;;5071304;28;20035;-54
2023/09/22 12:14:38;;;;;;;15.95;11.77;;;;;;;;;;5071151;28;20115;-51
2023/09/22 12:17:04;;;;;;;16.73;12.30;;;;;;;;;;5071373;28;20054;-55
2023/09/22 12:19:30;;;;;;;15.68;11.80;;;;;;;;;;5053375;28;20025;-57
2023/09/22 12:21:56;;;;;;;15.82;11.55;;;;;;;;;;5071067;28;20116;-54
2023/09/22 12:24:22;;;;;;;15.32;11.50;;;;;;;;;;5071083;28;20079;-52
2023/09/22 12:26:48;;;;;;;15.95;11.50;;;;;;;;;;5071619;28;20033;-52
2023/09/22 12:29:16;;;;;;;16.23;11.93;;;;;;;;;;5072022;28;20108;-52
2023/09/22 12:31:42;;;;;;;16.33;12.10;;;;;;;;;;5062128;28;20066;-53
2023/09/22 12:34:08;;;;;;;15.70;11.70;;;;;;;;;;5070021;28;20029;-56
2023/09/22 12:36:34;;;;;;;16.33;11.50;;;;;;;;;;5070364;28;20024;-57
2023/09/22 12:39:01;;;;;;;16.75;12.40;;;;;;;;;;5070708;28;20052;-59
2023/09/22 12:41:27;;;;;;;16.08;11.45;;;;;;;;;;5052508;28;20017;-50
2023/09/22 12:43:54;;;;;;;16.75;11.60;;;;;;;;;;5052446;28;20805;-53
2023/09/22 12:46:20;;;;;;;15.43;11.50;;;;;;;;;;5070827;28;20081;-55
2023/09/22 12:48:46;;;;;;;17.05;11.48;;;;;;;;;;5051763;28;20119;-54
2023/09/22 12:51:12;;;;;;;15.60;11.60;;;;;;;;;;5070219;28;20028;-54
2023/09/22 12:53:39;;;;;;;15.05;10.75;;;;;;;;;;5049482;28;20043;-56
2023/09/22 12:56:05;;;;;;;15.20;11.95;;;;;;;;;;5067230;28;20067;-52
2023/09/22 12:58:31;;;;;;;16.02;12.02;;;;;;;;;;5070732;28;20025;-50
2023/09/22 13:00:58;;;;;;;16.40;12.00;;;;;;;;;;5070607;28;20098;-49
2023/09/22 13:03:27;;;;;;;16.73;12.00;;;;;;;;;;5070140;28;20025;-50
2023/09/22 13:05:53;;;;;;;15.85;11.98;;;;;;;;;;5052418;28;20024;-55
2023/09/22 13:08:21;;;;;;;15.80;11.27;;;;;;;;;;5070406;28;20810;-53
2023/09/22 13:10:47;;;;;;;16.33;11.65;;;;;;;;;;5066586;28;20107;-56
2023/09/22 13:13:13;;;;;;;15.52;11.95;;;;;;;;;;5062063;28;20033;-53
2023/09/22 13:15:46;;;;;;;16.45;12.00;;;;;;;;;;5063766;28;20111;-55
2023/09/22 13:18:12;;;;;;;15.40;11.45;;;;;;;;;;5068571;28;20025;-49
2023/09/22 13:20:39;;;;;;;15.40;11.75;;;;;;;;;;5070858;28;20099;-55
2023/09/22 13:23:05;;;;;;;15.45;12.07;;;;;;;;;;5069813;28;20028;-53
2023/09/22 13:25:36;;;;;;;15.38;11.77;;;;;;;;;;5051807;28;20016;-51
2023/09/22 13:28:04;;;;;;;18.02;11.98;;;;;;;;;;5077389;28;20016;-53
2023/09/22 13:30:30;;;;;;;16.05;12.40;;;;;;;;;;5076771;28;20016;-53
2023/09/22 13:32:57;;;;;;;16.10;11.82;;;;;;;;;;5077124;28;20020;-52
2023/09/22 13:35:23;;;;;;;15.57;12.00;;;;;;;;;;5075706;28;20028;-51
2023/09/22 13:37:50;;;;;;;16.70;12.38;;;;;;;;;;5068016;28;20021;-56
2023/09/22 13:40:17;;;;;;;16.10;11.85;;;;;;;;;;5075563;28;20390;-51
2023/09/22 13:42:44;;;;;;;17.95;12.40;;;;;;;;;;5057475;28;20021;-54
2023/09/22 13:45:10;;;;;;;18.05;12.93;;;;;;;;;;5059025;28;20390;-53
2023/09/22 13:47:36;;;;;;;16.02;12.35;;;;;;;;;;5075988;28;20031;-54
2023/09/22 13:50:03;;;;;;;16.45;12.43;;;;;;;;;;5058730;28;20432;-53
2023/09/22 13:52:29;;;;;;;16.38;12.20;;;;;;;;;;5076100;28;20104;-55
2023/09/22 13:54:55;;;;;;;15.82;12.07;;;;;;;;;;5075624;28;20021;-52
2023/09/22 13:57:21;;;;;;;16.00;11.90;;;;;;;;;;5076444;28;20023;-51
2023/09/22 13:59:47;;;;;;;16.83;12.65;;;;;;;;;;5058631;28;20024;-53
2023/09/22 14:02:13;;;;;;;15.75;12.23;;;;;;;;;;5076231;28;20069;-50
2023/09/22 14:04:40;;;;;;;16.17;12.70;;;;;;;;;;5074256;28;20492;-52
2023/09/22 14:07:07;;;;;;;15.90;12.32;;;;;;;;;;5075672;28;20036;-52
2023/09/22 14:09:34;;;;;;;15.43;12.23;;;;;;;;;;5049645;28;20021;-52
2023/09/22 14:12:00;;;;;;;15.98;12.70;;;;;;;;;;5075626;28;20478;-56
2023/09/22 14:14:26;;;;;;;16.17;12.80;;;;;;;;;;5058279;28;20123;-52
2023/09/22 14:16:53;;;;;;;16.83;12.55;;;;;;;;;;5075991;28;20057;-55
2023/09/22 14:19:19;;;;;;;15.45;11.88;;;;;;;;;;5057878;28;20438;-55
2023/09/22 14:21:45;;;;;;;15.57;12.07;;;;;;;;;;5075943;28;20024;-58
2023/09/22 14:24:12;;;;;;;16.35;12.20;;;;;;;;;;5076077;28;20103;-60
2023/09/22 14:26:39;;;;;;;16.53;12.47;;;;;;;;;;5076343;28;20069;-57